createdAt,value
2022-09-15T00:02:43.560Z,96871.88
2022-09-15T00:05:45.775Z,96882.34
2022-09-15T00:08:47.913Z,96876.09
2022-09-15T00:11:49.994Z,96876.47
2022-09-15T00:14:51.703Z,96871.91
2022-09-15T00:17:53.784Z,96874.56
2022-09-15T00:20:55.666Z,96871.03
2022-09-15T00:23:59.039Z,96866.66
2022-09-15T00:27:01.002Z,96860.53
2022-09-15T00:30:03.642Z,96863.50
2022-09-15T00:33:06.095Z,96856.13
2022-09-15T00:36:14.169Z,96847.34
2022-09-15T00:39:15.944Z,96842.28
2022-09-15T00:42:21.997Z,96827.91
2022-09-15T00:45:23.930Z,96838.00
2022-09-15T00:48:25.964Z,96840.81
2022-09-15T00:51:36.200Z,96858.34
2022-09-15T00:54:41.109Z,96852.03
2022-09-15T00:57:56.591Z,96860.53
2022-09-15T01:01:01.053Z,96873.44
2022-09-15T01:04:03.118Z,96881.66
2022-09-15T01:07:06.797Z,96871.25
2022-09-15T01:10:14.957Z,96872.03
2022-09-15T01:13:16.907Z,96860.91
2022-09-15T01:20:31.166Z,96837.56
2022-09-15T01:24:12.388Z,96835.16
2022-09-15T01:27:38.116Z,96843.38
2022-09-15T01:30:38.304Z,96853.00
2022-09-15T01:33:48.303Z,96840.66
2022-09-15T01:36:57.404Z,96852.56
2022-09-15T01:40:00.687Z,96850.44
2022-09-15T01:43:03.963Z,96874.19
2022-09-15T01:46:06.228Z,96850.50
2022-09-15T01:49:09.924Z,96857.84
2022-09-15T01:52:12.040Z,96863.63
2022-09-15T01:55:23.774Z,96865.78
2022-09-15T01:58:25.811Z,96881.19
2022-09-15T02:01:50.377Z,96882.22
2022-09-15T02:05:25.605Z,96881.16
2022-09-15T02:08:43.186Z,96877.75
2022-09-15T02:12:21.379Z,96893.84
2022-09-15T02:15:37.319Z,96885.75
2022-09-15T02:18:45.632Z,96874.25
2022-09-15T02:21:53.368Z,96871.72
2022-09-15T02:25:03.015Z,96873.78
2022-09-15T02:28:07.754Z,96863.34
2022-09-15T02:31:12.246Z,96864.59
2022-09-15T02:34:21.192Z,96866.75
2022-09-15T02:37:23.654Z,96872.19
2022-09-15T02:40:26.611Z,96859.28
2022-09-15T02:43:29.679Z,96863.50
2022-09-15T02:46:31.800Z,96863.19
2022-09-15T02:49:34.120Z,96854.88
2022-09-15T02:52:35.961Z,96852.00
2022-09-15T02:55:37.701Z,96862.78
2022-09-15T02:58:39.514Z,96863.66
2022-09-15T03:01:41.281Z,96865.34
2022-09-15T03:04:43.674Z,96869.91
2022-09-15T03:07:45.738Z,96860.25
2022-09-15T03:10:47.788Z,96863.16
2022-09-15T03:13:54.055Z,96865.56
2022-09-15T03:16:55.863Z,96868.16
2022-09-15T03:19:57.702Z,96861.69
2022-09-15T03:22:59.391Z,96857.16
2022-09-15T03:26:02.100Z,96849.50
2022-09-15T03:29:04.595Z,96862.47
2022-09-15T03:32:06.372Z,96854.13
2022-09-15T03:35:09.058Z,96847.97
2022-09-15T03:38:10.746Z,96850.69
2022-09-15T03:41:13.955Z,96848.47
2022-09-15T03:44:16.297Z,96846.94
2022-09-15T03:47:18.103Z,96845.00
2022-09-15T03:50:20.257Z,96850.34
2022-09-15T03:53:22.321Z,96857.00
2022-09-15T03:56:26.378Z,96859.94
2022-09-15T03:59:28.229Z,96855.41
2022-09-15T04:02:29.921Z,96856.84
2022-09-15T04:05:31.950Z,96860.56
2022-09-15T04:08:33.812Z,96857.03
2022-09-15T04:11:35.871Z,96850.47
2022-09-15T04:14:38.006Z,96843.47
2022-09-15T04:17:39.701Z,96843.53
2022-09-15T04:20:41.699Z,96839.69
2022-09-15T04:23:44.458Z,96840.34
2022-09-15T04:26:46.325Z,96834.84
2022-09-15T04:29:52.252Z,96840.22
2022-09-15T04:32:54.067Z,96841.53
2022-09-15T04:36:00.570Z,96843.28
2022-09-15T04:39:02.815Z,96849.34
2022-09-15T04:42:06.328Z,96849.50
2022-09-15T04:45:08.775Z,96844.84
2022-09-15T04:48:11.279Z,96841.63
2022-09-15T04:51:21.013Z,96847.50
2022-09-15T04:54:23.676Z,96840.28
2022-09-15T04:57:25.470Z,96847.16
2022-09-15T05:00:27.963Z,96846.78
2022-09-15T05:03:30.105Z,96846.34
2022-09-15T05:06:32.554Z,96858.78
2022-09-15T05:09:34.562Z,96865.56
2022-09-15T05:12:36.427Z,96868.22
2022-09-15T05:15:38.568Z,96866.91
2022-09-15T05:18:42.175Z,96851.56
2022-09-15T05:21:44.638Z,96850.13
2022-09-15T05:24:46.840Z,96851.25
2022-09-15T05:27:48.566Z,96859.91
2022-09-15T05:30:54.748Z,96852.88
2022-09-15T05:33:56.974Z,96858.47
2022-09-15T05:36:59.885Z,96857.38
2022-09-15T05:40:07.660Z,96863.66
2022-09-15T05:43:14.234Z,96857.72
2022-09-15T05:46:18.316Z,96873.34
2022-09-15T05:49:20.916Z,96880.91
2022-09-15T05:52:23.181Z,96892.66
2022-09-15T05:55:25.429Z,96901.13
2022-09-15T05:58:27.858Z,96902.59
2022-09-15T06:01:31.384Z,96891.63
2022-09-15T06:04:34.532Z,96894.75
2022-09-15T06:07:36.489Z,96904.19
2022-09-15T06:10:39.008Z,96898.75
2022-09-15T06:13:41.266Z,96910.44
2022-09-15T06:16:43.314Z,96907.56
2022-09-15T06:19:45.760Z,96903.53
2022-09-15T06:22:47.948Z,96908.78
2022-09-15T06:25:50.012Z,96901.66
2022-09-15T06:28:54.058Z,96911.66
2022-09-15T06:31:57.370Z,96918.63
2022-09-15T06:38:19.704Z,96937.00
2022-09-15T06:41:22.408Z,96931.31
2022-09-15T06:44:25.283Z,96930.28
2022-09-15T06:47:34.124Z,96936.59
2022-09-15T06:50:36.639Z,96941.56
2022-09-15T06:53:39.748Z,96929.47
2022-09-15T06:56:42.525Z,96942.97
2022-09-15T06:59:44.973Z,96940.31
2022-09-15T07:02:50.766Z,96932.25
2022-09-15T07:05:53.671Z,96927.13
2022-09-15T07:08:57.304Z,96933.59
2022-09-15T07:11:59.523Z,96951.28
2022-09-15T07:15:01.765Z,96942.72
2022-09-15T07:18:04.674Z,96948.91
2022-09-15T07:21:10.304Z,96946.47
2022-09-15T07:24:13.256Z,96944.53
2022-09-15T07:27:16.611Z,96954.00
2022-09-15T07:30:20.424Z,96963.97
2022-09-15T07:33:24.399Z,96981.31
2022-09-15T07:36:28.899Z,96976.81
2022-09-15T07:39:33.436Z,96968.59
2022-09-15T07:42:35.710Z,96985.84
2022-09-15T07:45:38.907Z,96984.13
2022-09-15T07:48:41.946Z,96986.41
2022-09-15T07:51:44.160Z,96994.19
2022-09-15T07:54:46.356Z,96989.66
2022-09-15T07:57:48.908Z,96991.38
2022-09-15T08:00:51.876Z,96993.34
2022-09-15T08:03:54.600Z,97002.34
2022-09-15T08:06:56.993Z,96998.25
2022-09-15T08:09:59.736Z,97003.25
2022-09-15T08:13:02.204Z,96990.19
2022-09-15T08:16:13.272Z,96997.72
2022-09-15T08:19:15.612Z,96996.78
2022-09-15T08:22:17.635Z,97000.72
2022-09-15T08:25:19.862Z,97005.13
2022-09-15T08:28:22.249Z,97003.25
2022-09-15T08:31:25.260Z,97001.06
2022-09-15T08:34:28.623Z,97002.59
2022-09-15T08:37:31.731Z,96996.22
2022-09-15T08:40:36.842Z,96991.00
2022-09-15T08:43:44.678Z,96991.50
2022-09-15T08:46:47.422Z,97001.16
2022-09-15T08:50:04.699Z,97001.44
2022-09-15T08:53:13.250Z,97003.63
2022-09-15T08:56:17.952Z,97004.41
2022-09-15T08:59:20.946Z,97004.38
2022-09-15T09:02:39.807Z,97000.44
2022-09-15T09:05:50.808Z,96985.44
2022-09-15T09:09:17.920Z,96982.47
2022-09-15T09:12:27.197Z,96980.66
2022-09-15T09:15:48.147Z,96978.53
2022-09-15T09:19:00.010Z,96981.50
2022-09-15T09:22:10.361Z,96982.72
2022-09-15T09:25:26.843Z,96979.84
2022-09-15T09:28:36.585Z,96975.25
2022-09-15T09:31:40.827Z,96966.75
2022-09-15T09:35:01.063Z,96967.56
2022-09-15T09:38:03.810Z,96967.03
2022-09-15T09:41:26.359Z,96969.88
2022-09-15T09:44:32.223Z,96956.91
2022-09-15T09:47:35.475Z,96959.50
2022-09-15T09:50:43.780Z,96950.91
2022-09-15T09:53:54.229Z,96948.34
2022-09-15T09:57:23.536Z,96935.41
2022-09-15T10:00:32.725Z,96923.38
2022-09-15T10:03:34.859Z,96919.19
2022-09-15T10:06:37.098Z,96913.38
2022-09-15T10:09:42.385Z,96931.78
2022-09-15T10:13:02.868Z,96915.50
2022-09-15T10:16:06.758Z,96904.22
2022-09-15T10:19:14.332Z,96908.28
2022-09-15T10:22:27.648Z,96903.19
2022-09-15T10:25:55.028Z,96901.88
2022-09-15T10:29:14.537Z,96893.38
2022-09-15T10:32:27.116Z,96887.56
2022-09-15T10:35:32.855Z,96881.84
2022-09-15T10:38:46.785Z,96884.91
2022-09-15T10:42:11.884Z,96882.19
2022-09-15T10:45:14.958Z,96878.13
2022-09-15T10:48:23.897Z,96884.59
2022-09-15T10:51:47.477Z,96887.31
2022-09-15T10:55:08.492Z,96881.66
2022-09-15T10:58:24.927Z,96876.66
2022-09-15T11:01:46.475Z,96874.75
2022-09-15T11:05:09.363Z,96880.53
2022-09-15T11:08:33.621Z,96884.59
2022-09-15T11:11:45.052Z,96882.53
2022-09-15T11:15:16.268Z,96887.59
2022-09-15T11:18:45.493Z,96873.09
2022-09-15T11:21:53.091Z,96866.25
2022-09-15T11:25:22.316Z,96869.97
2022-09-15T11:28:34.957Z,96867.78
2022-09-15T11:31:42.239Z,96858.16
2022-09-15T11:34:54.717Z,96849.50
2022-09-15T11:38:27.337Z,96846.34
2022-09-15T11:41:38.849Z,96839.97
2022-09-15T11:44:43.888Z,96831.56
2022-09-15T11:47:51.279Z,96828.69
2022-09-15T11:50:56.161Z,96830.56
2022-09-15T11:54:06.453Z,96837.81
2022-09-15T11:57:17.100Z,96832.72
2022-09-15T12:00:24.251Z,96835.06
2022-09-15T12:03:48.642Z,96827.34
2022-09-15T12:07:13.705Z,96825.97
2022-09-15T12:10:25.643Z,96813.38
2022-09-15T12:13:27.942Z,96804.56
2022-09-15T12:16:31.119Z,96809.09
2022-09-15T12:19:36.021Z,96799.72
2022-09-15T12:22:53.125Z,96800.22
2022-09-15T12:26:14.916Z,96797.53
2022-09-15T12:29:41.273Z,96801.31
2022-09-15T12:32:44.893Z,96794.34
2022-09-15T12:35:47.742Z,96790.88
2022-09-15T12:38:49.804Z,96784.72
2022-09-15T12:41:58.114Z,96783.59
2022-09-15T12:45:00.184Z,96788.94
2022-09-15T12:48:14.034Z,96782.25
2022-09-15T12:51:24.607Z,96776.84
2022-09-15T12:54:36.893Z,96778.22
2022-09-15T12:57:39.157Z,96764.78
2022-09-15T13:01:06.836Z,96763.16
2022-09-15T13:04:05.246Z,96771.69
2022-09-15T13:07:37.392Z,96761.72
2022-09-15T13:10:43.181Z,96765.25
2022-09-15T13:14:03.532Z,96768.91
2022-09-15T13:17:16.971Z,96769.28
2022-09-15T13:20:30.115Z,96783.28
2022-09-15T13:23:37.297Z,96774.25
2022-09-15T13:26:40.697Z,96762.91
2022-09-15T13:29:49.415Z,96757.97
2022-09-15T13:33:12.709Z,96759.34
2022-09-15T13:40:47.026Z,96752.06
2022-09-15T13:44:14.190Z,96757.25
2022-09-15T13:47:31.491Z,96755.19
2022-09-15T13:50:56.644Z,96732.09
2022-09-15T13:54:03.427Z,96730.16
2022-09-15T13:57:05.949Z,96732.59
2022-09-15T14:00:20.900Z,96719.72
2022-09-15T14:03:45.683Z,96709.34
2022-09-15T14:06:49.759Z,96716.84
2022-09-15T14:09:52.145Z,96728.47
2022-09-15T14:12:54.739Z,96707.75
2022-09-15T14:16:02.922Z,96702.13
2022-09-15T14:19:23.322Z,96697.69
2022-09-15T14:22:26.936Z,96711.38
2022-09-15T14:25:29.858Z,96710.00
2022-09-15T14:28:32.989Z,96707.06
2022-09-15T14:31:41.104Z,96706.00
2022-09-15T14:34:44.910Z,96718.69
2022-09-15T14:37:57.257Z,96715.78
2022-09-15T14:41:02.608Z,96724.09
2022-09-15T14:48:08.700Z,96724.19
2022-09-15T14:51:18.518Z,96725.41
2022-09-15T14:54:34.180Z,96718.78
2022-09-15T14:57:38.078Z,96724.34
2022-09-15T15:00:56.943Z,96714.28
2022-09-15T15:04:10.486Z,96702.22
2022-09-15T15:07:20.201Z,96719.19
2022-09-15T15:10:33.461Z,96730.06
2022-09-15T15:13:41.134Z,96723.06
2022-09-15T15:17:24.087Z,96728.50
2022-09-15T15:20:30.535Z,96734.84
2022-09-15T15:23:33.218Z,96729.28
2022-09-15T15:26:38.693Z,96737.25
2022-09-15T15:29:48.087Z,96739.56
2022-09-15T15:32:50.864Z,96734.69
2022-09-15T15:36:08.702Z,96746.25
2022-09-15T15:39:25.317Z,96754.34
2022-09-15T15:42:29.170Z,96753.44
2022-09-15T15:45:34.832Z,96754.75
2022-09-15T15:48:38.554Z,96753.53
2022-09-15T15:51:41.858Z,96759.91
2022-09-15T15:54:44.830Z,96766.53
2022-09-15T15:57:56.202Z,96767.97
2022-09-15T16:00:59.540Z,96761.34
2022-09-15T16:04:03.130Z,96773.28
2022-09-15T16:07:06.828Z,96773.13
2022-09-15T16:10:15.309Z,96758.75
2022-09-15T16:13:20.791Z,96767.88
2022-09-15T16:16:25.918Z,96762.91
2022-09-15T16:19:28.617Z,96770.88
2022-09-15T16:22:30.873Z,96764.41
2022-09-15T16:25:49.599Z,96772.78
2022-09-15T16:28:52.662Z,96779.63
2022-09-15T16:31:56.341Z,96787.81
2022-09-15T16:34:58.319Z,96782.41
2022-09-15T16:38:00.778Z,96788.75
2022-09-15T16:41:04.876Z,96790.94
2022-09-15T16:44:18.513Z,96797.59
2022-09-15T16:47:22.172Z,96798.59
2022-09-15T16:50:25.889Z,96794.69
2022-09-15T16:53:30.793Z,96795.16
2022-09-15T16:56:33.294Z,96800.91
2022-09-15T16:59:36.380Z,96806.63
2022-09-15T17:02:39.639Z,96808.69
2022-09-15T17:05:49.698Z,96810.75
2022-09-15T17:08:52.938Z,96810.94
2022-09-15T17:11:57.968Z,96817.94
2022-09-15T17:15:00.581Z,96819.34
2022-09-15T17:18:04.400Z,96831.69
2022-09-15T17:21:07.757Z,96828.06
2022-09-15T17:24:11.318Z,96831.00
2022-09-15T17:27:14.255Z,96833.44
2022-09-15T17:30:19.463Z,96838.97
2022-09-15T17:33:21.875Z,96833.88
2022-09-15T17:36:24.453Z,96845.69
2022-09-15T17:39:28.653Z,96848.66
2022-09-15T17:42:31.524Z,96852.56
2022-09-15T17:45:36.033Z,96867.78
2022-09-15T17:48:39.315Z,96884.31
2022-09-15T17:51:42.343Z,96886.59
2022-09-15T17:54:44.719Z,96896.38
2022-09-15T17:57:49.621Z,96894.16
2022-09-15T18:00:53.256Z,96908.41
2022-09-15T18:03:55.941Z,96908.16
2022-09-15T18:06:58.178Z,96913.06
2022-09-15T18:10:02.095Z,96904.09
2022-09-15T18:13:06.617Z,96908.94
2022-09-15T18:16:13.071Z,96915.72
2022-09-15T18:19:15.758Z,96912.44
2022-09-15T18:22:19.789Z,96906.91
2022-09-15T18:25:28.763Z,96906.66
2022-09-15T18:28:31.406Z,96908.53
2022-09-15T18:31:33.803Z,96905.28
2022-09-15T18:34:36.964Z,96900.41
2022-09-15T18:37:39.408Z,96896.38
2022-09-15T18:40:48.502Z,96903.75
2022-09-15T18:43:52.017Z,96909.88
2022-09-15T18:46:54.675Z,96908.25
2022-09-15T18:49:57.271Z,96890.75
2022-09-15T18:53:00.937Z,96891.59
2022-09-15T18:56:15.323Z,96889.47
2022-09-15T18:59:17.946Z,96897.66
2022-09-15T19:02:21.423Z,96901.53
2022-09-15T19:05:24.269Z,96915.50
2022-09-15T19:08:30.468Z,96922.00
2022-09-15T19:11:33.176Z,96917.34
2022-09-15T19:14:35.915Z,96906.75
2022-09-15T19:17:38.627Z,96899.66
2022-09-15T19:20:41.301Z,96912.69
2022-09-15T19:23:43.910Z,96898.13
2022-09-15T19:26:47.735Z,96881.84
2022-09-15T19:29:50.766Z,96870.84
2022-09-15T19:32:53.226Z,96870.28
2022-09-15T19:36:10.577Z,96882.13
2022-09-15T19:39:15.710Z,96877.41
2022-09-15T19:42:18.628Z,96877.41
2022-09-15T19:45:21.321Z,96882.75
2022-09-15T19:48:23.248Z,96890.28
2022-09-15T19:51:26.248Z,96905.53
2022-09-15T19:54:31.192Z,96931.13
2022-09-15T19:57:33.865Z,96932.38
2022-09-15T20:00:42.715Z,96937.84
2022-09-15T20:07:04.883Z,96956.63
2022-09-15T20:10:07.614Z,96963.13
2022-09-15T20:13:09.547Z,96974.72
2022-09-15T20:16:20.038Z,96978.97
2022-09-15T20:19:22.909Z,96966.16
2022-09-15T20:22:25.526Z,96975.53
2022-09-15T20:25:27.925Z,96974.31
2022-09-15T20:28:35.483Z,96978.34
2022-09-15T20:31:38.811Z,96987.75
2022-09-15T20:34:41.061Z,96986.91
2022-09-15T20:37:43.025Z,96997.50
2022-09-15T20:40:45.415Z,97001.75
2022-09-15T20:43:47.211Z,96995.06
2022-09-15T20:46:49.660Z,97001.97
2022-09-15T20:49:52.182Z,97002.38
2022-09-15T20:52:54.151Z,97010.56
2022-09-15T20:55:56.945Z,97018.25
2022-09-15T20:59:00.005Z,97020.09
2022-09-15T21:02:05.000Z,97015.00
2022-09-15T21:05:07.152Z,97019.72
2022-09-15T21:08:11.116Z,97020.09
2022-09-15T21:11:18.091Z,97015.00
2022-09-15T21:14:20.406Z,97014.00
2022-09-15T21:17:23.223Z,97019.06
2022-09-15T21:20:25.913Z,97025.59
2022-09-15T21:23:33.630Z,97024.00
2022-09-15T21:27:00.762Z,97026.25
2022-09-15T21:30:02.897Z,97030.50
2022-09-15T21:33:05.015Z,97030.91
2022-09-15T21:36:12.894Z,97034.56
2022-09-15T21:39:14.938Z,97027.06
2022-09-15T21:42:17.851Z,97031.72
2022-09-15T21:45:19.953Z,97038.44
2022-09-15T21:48:21.765Z,97034.16
2022-09-15T21:51:25.251Z,97034.16
2022-09-15T21:54:27.183Z,97038.19
2022-09-15T21:57:29.586Z,97043.09
2022-09-15T22:00:32.134Z,97044.72
2022-09-15T22:03:34.008Z,97051.22
2022-09-15T22:06:40.453Z,97060.97
2022-09-15T22:09:43.059Z,97065.25
2022-09-15T22:12:45.729Z,97077.66
2022-09-15T22:15:47.441Z,97086.41
2022-09-15T22:18:50.051Z,97086.63
2022-09-15T22:21:52.169Z,97092.72
2022-09-15T22:24:53.980Z,97097.22
2022-09-15T22:27:56.224Z,97102.91
2022-09-15T22:31:02.334Z,97087.84
2022-09-15T22:34:04.483Z,97107.00
2022-09-15T22:37:06.313Z,97096.81
2022-09-15T22:40:08.873Z,97117.34
2022-09-15T22:43:10.727Z,97116.31
2022-09-15T22:46:12.781Z,97109.81
2022-09-15T22:49:15.657Z,97115.72
2022-09-15T22:52:17.432Z,97106.13
2022-09-15T22:55:19.535Z,97103.72
2022-09-15T22:58:21.649Z,97106.53
2022-09-15T23:01:26.931Z,97111.81
2022-09-15T23:04:29.136Z,97120.75
2022-09-15T23:07:31.139Z,97121.97
2022-09-15T23:10:34.225Z,97121.19
2022-09-15T23:13:36.644Z,97130.13
2022-09-15T23:16:38.411Z,97130.56
2022-09-15T23:19:40.881Z,97136.03
2022-09-15T23:22:42.677Z,97147.22
2022-09-15T23:25:44.814Z,97158.97
2022-09-15T23:28:47.405Z,97149.44
2022-09-15T23:31:49.275Z,97153.28
2022-09-15T23:34:52.817Z,97154.09
2022-09-15T23:37:54.699Z,97156.72
2022-09-15T23:40:57.187Z,97156.69
2022-09-15T23:43:59.987Z,97157.28
2022-09-15T23:47:01.898Z,97155.66
2022-09-15T23:50:04.503Z,97157.63
2022-09-15T23:53:07.063Z,97148.47
2022-09-15T23:56:09.611Z,97146.28
2022-09-15T23:59:11.499Z,97138.97
